ADDS TAF Data INFO
IDs: Format: Raw Decoded Include METARs

Data at: 1418 UTC 22 Nov 2017

KELP 221351Z 00000KT 10SM FEW180 FEW250 08/M03 A3038 RMK AO2 SLP254 T00831033

KELP 221139Z 2212/2312 03005KT P6SM SCT250
  FM221700 15004KT P6SM SCT250
  FM230300 VRB04KT P6SM SCT250